createdAt,value
2023-04-02T00:01:02.659Z,64.30
2023-04-02T00:03:44.005Z,60.25
2023-04-02T00:06:30.576Z,56.33
2023-04-02T00:09:17.372Z,55.21
2023-04-02T00:11:46.631Z,56.20
2023-04-02T00:14:17.632Z,58.64
2023-04-02T00:16:46.073Z,60.87
2023-04-02T00:19:23.246Z,61.76
2023-04-02T00:21:52.355Z,64.53
2023-04-02T00:24:22.337Z,65.76
2023-04-02T00:26:52.222Z,62.51
2023-04-02T00:29:21.251Z,58.10
2023-04-02T00:31:54.029Z,55.54
2023-04-02T00:34:36.782Z,57.08
2023-04-02T00:37:04.985Z,58.16
2023-04-02T00:39:41.812Z,60.21
2023-04-02T00:42:12.761Z,60.14
2023-04-02T00:44:44.366Z,64.49
2023-04-02T00:47:33.703Z,66.25
2023-04-02T00:50:07.855Z,60.49
2023-04-02T00:52:36.730Z,54.78
2023-04-02T00:55:37.071Z,55.29
2023-04-02T00:58:19.314Z,57.26
2023-04-02T01:00:51.613Z,58.41
2023-04-02T01:03:19.568Z,61.67
2023-04-02T01:05:57.062Z,62.22
2023-04-02T01:08:44.163Z,65.61
2023-04-02T01:11:24.195Z,63.19
2023-04-02T01:14:12.818Z,56.72
2023-04-02T01:17:15.667Z,55.96
2023-04-02T01:19:58.625Z,57.62
2023-04-02T01:22:37.202Z,60.81
2023-04-02T01:25:06.624Z,63.72
2023-04-02T01:27:52.449Z,64.00
2023-04-02T01:30:21.207Z,58.17
2023-04-02T01:32:50.013Z,56.91
2023-04-02T01:35:18.339Z,57.83
2023-04-02T01:37:59.374Z,60.53
2023-04-02T01:40:53.646Z,61.13
2023-04-02T01:43:30.460Z,65.19
2023-04-02T01:45:59.292Z,64.85
2023-04-02T01:48:30.506Z,61.87
2023-04-02T01:51:00.602Z,55.72
2023-04-02T01:53:31.511Z,56.35
2023-04-02T01:56:02.785Z,56.94
2023-04-02T01:58:32.950Z,59.33
2023-04-02T02:01:26.430Z,62.82
2023-04-02T02:03:54.947Z,66.89
2023-04-02T02:06:24.044Z,62.50
2023-04-02T02:09:01.448Z,58.30
2023-04-02T02:11:32.039Z,55.44
2023-04-02T02:14:02.546Z,57.06
2023-04-02T02:16:32.510Z,56.99
2023-04-02T02:19:04.948Z,58.42
2023-04-02T02:21:43.623Z,61.19
2023-04-02T02:24:24.671Z,65.09
2023-04-02T02:27:03.121Z,63.88
2023-04-02T02:29:35.509Z,59.47
2023-04-02T02:32:05.734Z,56.45
2023-04-02T02:34:48.369Z,57.53
2023-04-02T02:37:23.898Z,59.46
2023-04-02T02:39:56.292Z,60.26
2023-04-02T02:42:47.547Z,63.57
2023-04-02T02:45:20.130Z,64.55
2023-04-02T02:47:50.414Z,61.26
2023-04-02T02:50:23.102Z,57.06
2023-04-02T02:52:55.061Z,56.17
2023-04-02T02:55:32.726Z,58.42
2023-04-02T03:07:42.843Z,57.88
2023-04-02T03:10:17.960Z,57.38
2023-04-02T03:12:59.184Z,59.53
2023-04-02T03:15:49.932Z,61.99
2023-04-02T03:18:36.610Z,65.29
2023-04-02T03:21:14.342Z,62.05
2023-04-02T03:23:46.139Z,58.74
2023-04-02T03:26:26.675Z,55.78
2023-04-02T03:29:17.864Z,57.31
2023-04-02T03:31:51.500Z,60.78
2023-04-02T03:34:26.898Z,60.43
2023-04-02T03:37:18.500Z,64.81
2023-04-02T03:40:07.580Z,62.92
2023-04-02T03:42:48.436Z,60.08
2023-04-02T03:45:24.250Z,56.49
2023-04-02T03:48:03.812Z,56.43
2023-04-02T03:50:41.399Z,58.56
2023-04-02T03:53:09.650Z,60.97
2023-04-02T03:55:40.073Z,61.90
2023-04-02T03:58:23.301Z,65.30
2023-04-02T04:01:17.580Z,62.48
2023-04-02T04:03:51.080Z,57.62
2023-04-02T04:06:29.139Z,56.69
2023-04-02T04:09:20.919Z,58.81
2023-04-02T04:11:52.943Z,58.92
2023-04-02T04:14:30.972Z,60.83
2023-04-02T04:17:15.568Z,64.28
2023-04-02T04:19:49.634Z,63.48
2023-04-02T04:22:20.373Z,62.21
2023-04-02T04:24:53.283Z,59.68
2023-04-02T04:27:33.780Z,55.86
2023-04-02T04:30:24.556Z,57.40
2023-04-02T04:32:58.877Z,60.20
2023-04-02T04:35:37.851Z,60.36
2023-04-02T04:38:27.648Z,63.79
2023-04-02T04:41:00.271Z,63.42
2023-04-02T04:43:44.258Z,60.81
2023-04-02T04:46:20.748Z,57.62
2023-04-02T04:49:08.333Z,56.94
2023-04-02T04:51:47.846Z,57.59
2023-04-02T04:54:17.310Z,58.50
2023-04-02T04:56:53.816Z,60.59
2023-04-02T04:59:28.452Z,61.86
2023-04-02T05:02:17.504Z,65.28
2023-04-02T05:04:51.749Z,64.47
2023-04-02T05:07:30.323Z,59.19
2023-04-02T05:10:12.392Z,57.40
2023-04-02T05:12:48.763Z,59.81
2023-04-02T05:15:33.377Z,62.05
2023-04-02T05:18:45.342Z,64.10
2023-04-02T05:21:34.360Z,62.64
2023-04-02T05:24:48.405Z,58.80
2023-04-02T05:27:46.321Z,58.08
2023-04-02T05:30:53.363Z,60.86
2023-04-02T05:33:28.409Z,63.83
2023-04-02T05:36:15.389Z,63.29
2023-04-02T05:38:52.406Z,60.47
2023-04-02T05:41:49.368Z,56.45
2023-04-02T05:44:35.017Z,57.24
2023-04-02T05:47:20.357Z,59.62
2023-04-02T05:50:11.434Z,61.15
2023-04-02T05:53:08.400Z,65.17
2023-04-02T05:55:52.841Z,64.50
2023-04-02T05:59:04.421Z,63.15
2023-04-02T06:02:10.453Z,61.35
2023-04-02T06:05:07.556Z,57.29
2023-04-02T06:07:49.918Z,57.49
2023-04-02T06:10:29.448Z,58.65
2023-04-02T06:13:06.880Z,60.79
2023-04-02T06:15:41.409Z,63.80
2023-04-02T06:25:54.519Z,57.89
2023-04-02T06:28:36.189Z,57.74
2023-04-02T06:31:12.170Z,60.22
2023-04-02T06:33:40.316Z,60.46
2023-04-02T06:36:12.431Z,62.09
2023-04-02T06:38:43.269Z,65.07
2023-04-02T06:41:19.741Z,62.62
2023-04-02T06:44:17.550Z,58.68
2023-04-02T06:46:59.351Z,56.12
2023-04-02T06:49:57.726Z,57.98
2023-04-02T06:52:34.907Z,59.81
2023-04-02T06:55:46.928Z,61.58
2023-04-02T06:58:19.499Z,62.02
2023-04-02T07:00:50.235Z,64.22
2023-04-02T07:03:28.978Z,62.80
2023-04-02T07:06:02.594Z,57.99
2023-04-02T07:08:32.659Z,56.86
2023-04-02T07:11:01.149Z,59.16
2023-04-02T07:13:29.986Z,60.83
2023-04-02T07:15:59.350Z,63.05
2023-04-02T07:18:30.930Z,63.14
2023-04-02T07:21:00.386Z,60.19
2023-04-02T07:23:29.114Z,57.92
2023-04-02T07:25:58.679Z,58.96
2023-04-02T07:28:26.781Z,61.30
2023-04-02T07:30:56.184Z,61.91
2023-04-02T07:33:27.283Z,64.36
2023-04-02T07:35:57.545Z,64.35
2023-04-02T07:38:26.005Z,59.00
2023-04-02T07:40:54.466Z,57.42
2023-04-02T07:43:23.323Z,58.99
2023-04-02T07:45:51.950Z,61.19
2023-04-02T07:48:20.017Z,63.56
2023-04-02T07:50:48.107Z,62.71
2023-04-02T07:53:31.717Z,60.40
2023-04-02T07:56:02.458Z,59.13
2023-04-02T07:58:32.374Z,59.40
2023-04-02T08:01:01.909Z,60.86
2023-04-02T08:03:30.230Z,62.35
2023-04-02T08:05:59.342Z,64.62
2023-04-02T08:08:27.418Z,63.45
2023-04-02T08:10:55.805Z,61.99
2023-04-02T08:13:23.975Z,60.58
2023-04-02T08:15:52.241Z,58.18
2023-04-02T08:18:23.729Z,58.24
2023-04-02T08:20:52.894Z,59.01
2023-04-02T08:23:21.888Z,60.55
2023-04-02T08:25:51.016Z,61.86
2023-04-02T08:28:19.483Z,62.14
2023-04-02T08:30:51.668Z,64.09
2023-04-02T08:33:19.950Z,63.18
2023-04-02T08:35:49.754Z,59.70
2023-04-02T08:38:20.053Z,58.88
2023-04-02T08:40:54.849Z,59.87
2023-04-02T08:43:53.453Z,60.51
2023-04-02T08:46:29.703Z,61.13
2023-04-02T08:49:04.850Z,63.66
2023-04-02T08:51:36.546Z,63.35
2023-04-02T08:54:27.807Z,62.04
2023-04-02T08:57:04.583Z,61.49
2023-04-02T08:59:38.966Z,57.20
2023-04-02T09:02:25.771Z,56.22
2023-04-02T09:04:56.299Z,57.50
2023-04-02T09:07:26.657Z,59.74
2023-04-02T09:09:55.282Z,60.29
2023-04-02T09:12:29.805Z,61.41
2023-04-02T09:15:20.572Z,62.14
2023-04-02T09:17:54.048Z,63.85
2023-04-02T09:20:26.581Z,62.29
2023-04-02T09:22:56.707Z,56.96
2023-04-02T09:25:27.996Z,55.99
2023-04-02T09:27:58.901Z,57.22
2023-04-02T09:30:54.589Z,58.37
2023-04-02T09:33:42.049Z,59.72
2023-04-02T09:36:38.192Z,61.14
2023-04-02T09:39:17.768Z,62.09
2023-04-02T09:41:55.830Z,63.58
2023-04-02T09:44:31.442Z,61.84
2023-04-02T09:47:10.804Z,54.88
2023-04-02T09:49:40.282Z,54.74
2023-04-02T09:52:16.873Z,56.04
2023-04-02T09:54:46.105Z,57.94
2023-04-02T09:57:27.421Z,59.46
2023-04-02T10:03:07.104Z,62.06
2023-04-02T10:08:21.566Z,63.31
2023-04-02T10:10:53.240Z,60.39
2023-04-02T10:13:33.883Z,54.96
2023-04-02T10:16:11.756Z,55.09
2023-04-02T10:18:52.040Z,56.47
2023-04-02T10:21:25.942Z,58.44
2023-04-02T10:23:55.915Z,59.40
2023-04-02T10:26:36.389Z,61.20
2023-04-02T10:29:25.295Z,62.48
2023-04-02T10:32:00.811Z,63.63
2023-04-02T10:34:54.356Z,60.84
2023-04-02T10:37:44.071Z,55.99
2023-04-02T10:40:36.437Z,55.12
2023-04-02T10:43:42.486Z,55.76
2023-04-02T10:46:29.315Z,57.73
2023-04-02T10:49:11.716Z,60.13
2023-04-02T10:51:54.385Z,61.00
2023-04-02T10:54:38.767Z,60.76
2023-04-02T10:57:28.606Z,62.43
2023-04-02T11:00:11.053Z,65.64
2023-04-02T11:03:08.725Z,61.55
2023-04-02T11:05:53.712Z,55.69
2023-04-02T11:08:34.049Z,56.19
2023-04-02T11:11:16.060Z,58.39
2023-04-02T11:14:15.191Z,60.55
2023-04-02T11:16:44.773Z,62.92
2023-04-02T11:19:18.873Z,63.46
2023-04-02T11:21:59.362Z,58.91
2023-04-02T11:24:34.590Z,57.60
2023-04-02T11:27:11.839Z,58.78
2023-04-02T11:29:44.591Z,60.74
2023-04-02T11:32:20.897Z,63.33
2023-04-02T11:34:56.476Z,64.31
2023-04-02T11:37:45.299Z,61.82
2023-04-02T11:40:16.646Z,56.73
2023-04-02T11:42:52.969Z,55.82
2023-04-02T11:45:24.156Z,58.25
2023-04-02T11:48:01.420Z,61.69
2023-04-02T11:50:44.955Z,64.63
2023-04-02T11:53:13.816Z,65.07
2023-04-02T11:55:46.798Z,64.12
2023-04-02T11:58:33.355Z,59.99
2023-04-02T12:01:34.341Z,57.21
2023-04-02T12:04:11.898Z,59.95
2023-04-02T12:07:07.569Z,64.07
2023-04-02T12:10:18.721Z,65.65
2023-04-02T12:12:47.300Z,65.33
2023-04-02T12:15:38.193Z,64.11
2023-04-02T12:18:19.646Z,59.96
2023-04-02T12:20:56.565Z,58.94
2023-04-02T12:23:32.507Z,60.79
2023-04-02T12:26:03.610Z,65.29
2023-04-02T12:28:34.104Z,65.86
2023-04-02T12:31:15.109Z,60.22
2023-04-02T12:33:43.201Z,58.40
2023-04-02T12:36:14.769Z,59.27
2023-04-02T12:38:48.282Z,61.78
2023-04-02T12:41:24.873Z,62.86
2023-04-02T12:44:06.601Z,60.30
2023-04-02T12:46:37.994Z,59.19
2023-04-02T12:49:22.121Z,61.39
2023-04-02T12:51:53.112Z,64.55
2023-04-02T12:54:21.802Z,64.28
2023-04-02T12:56:50.815Z,65.36
2023-04-02T12:59:27.856Z,63.81
2023-04-02T13:02:02.586Z,57.30
2023-04-02T13:04:30.722Z,56.77
2023-04-02T13:06:59.625Z,59.62
2023-04-02T13:09:46.842Z,62.49
2023-04-02T13:12:41.530Z,64.60
2023-04-02T13:15:43.775Z,64.61
2023-04-02T13:18:18.911Z,57.52
2023-04-02T13:20:58.854Z,56.78
2023-04-02T13:23:29.966Z,59.34
2023-04-02T13:26:12.033Z,61.90
2023-04-02T13:28:40.104Z,65.13
2023-04-02T13:31:16.314Z,64.07
2023-04-02T13:33:44.349Z,61.26
2023-04-02T13:36:15.898Z,56.66
2023-04-02T13:38:43.959Z,56.19
2023-04-02T13:41:29.680Z,57.63
2023-04-02T13:44:01.205Z,60.59
2023-04-02T13:46:32.238Z,60.83
2023-04-02T13:49:00.970Z,64.11
2023-04-02T13:51:49.576Z,64.07
2023-04-02T13:54:30.522Z,57.47
2023-04-02T13:56:58.554Z,57.30
2023-04-02T13:59:27.208Z,58.73
2023-04-02T14:01:59.742Z,60.28
2023-04-02T14:04:31.706Z,61.82
2023-04-02T14:07:12.402Z,63.68
2023-04-02T14:10:01.847Z,61.97
2023-04-02T14:12:39.271Z,61.81
2023-04-02T14:15:33.419Z,57.41
2023-04-02T14:18:38.181Z,57.92
2023-04-02T14:21:21.322Z,61.65
2023-04-02T14:23:55.678Z,66.33
2023-04-02T14:26:39.863Z,65.27
2023-04-02T14:29:21.901Z,61.93
2023-04-02T14:31:53.238Z,56.95
2023-04-02T14:34:43.413Z,58.06
2023-04-02T14:37:35.546Z,62.11
2023-04-02T14:40:07.815Z,63.80
2023-04-02T14:43:19.113Z,63.28
2023-04-02T14:45:59.003Z,62.10
2023-04-02T14:48:36.334Z,60.01
2023-04-02T14:51:27.667Z,57.22
2023-04-02T14:54:17.554Z,59.67
2023-04-02T14:56:49.297Z,60.99
2023-04-02T14:59:24.068Z,64.89
2023-04-02T15:02:18.564Z,64.50
2023-04-02T15:04:59.523Z,61.86
2023-04-02T15:07:39.137Z,61.75
2023-04-02T15:10:19.146Z,59.51
2023-04-02T15:12:49.034Z,56.83
2023-04-02T15:15:56.462Z,58.51
2023-04-02T15:18:25.618Z,60.46
2023-04-02T15:25:49.284Z,66.14
2023-04-02T15:28:29.357Z,59.85
2023-04-02T15:31:03.790Z,56.72
2023-04-02T15:33:38.011Z,58.77
2023-04-02T15:36:31.516Z,61.26
2023-04-02T15:39:27.677Z,65.33
2023-04-02T15:42:15.491Z,64.11
2023-04-02T15:45:10.023Z,61.81
2023-04-02T15:47:51.361Z,61.75
2023-04-02T15:50:39.209Z,60.37
2023-04-02T15:53:22.372Z,57.27
2023-04-02T15:55:55.935Z,59.01
2023-04-02T15:58:45.700Z,62.30
2023-04-02T16:01:37.426Z,65.56
2023-04-02T16:04:34.289Z,63.97
2023-04-02T16:07:24.770Z,62.28
2023-04-02T16:10:11.596Z,62.21
2023-04-02T16:12:41.054Z,63.02
2023-04-02T16:15:23.598Z,63.16
2023-04-02T16:22:29.686Z,64.56
2023-04-02T16:25:02.222Z,62.69
2023-04-02T16:27:38.443Z,62.32
2023-04-02T16:30:45.604Z,62.87
2023-04-02T16:33:22.494Z,60.98
2023-04-02T16:35:56.968Z,61.77
2023-04-02T16:38:54.864Z,62.14
2023-04-02T16:41:38.598Z,62.02
2023-04-02T16:44:29.514Z,62.87
2023-04-02T16:47:19.141Z,64.51
2023-04-02T16:50:13.825Z,63.89
2023-04-02T16:52:50.838Z,62.67
2023-04-02T16:55:23.689Z,60.95
2023-04-02T16:58:10.657Z,58.59
2023-04-02T17:00:48.516Z,60.41
2023-04-02T17:03:35.283Z,65.26
2023-04-02T17:06:08.429Z,66.55
2023-04-02T17:08:43.823Z,64.55
2023-04-02T17:11:29.708Z,61.32
2023-04-02T17:14:07.548Z,58.49
2023-04-02T17:16:43.129Z,58.27
2023-04-02T17:19:16.170Z,62.83
2023-04-02T17:21:48.655Z,67.85
2023-04-02T17:24:42.805Z,63.49
2023-04-02T17:27:28.933Z,57.92
2023-04-02T17:30:19.394Z,59.15
2023-04-02T17:32:47.375Z,64.29
2023-04-02T17:35:21.465Z,66.62
2023-04-02T17:38:01.163Z,65.03
2023-04-02T17:40:31.797Z,61.93
2023-04-02T17:43:05.636Z,59.72
2023-04-02T17:45:56.494Z,58.76
2023-04-02T17:48:35.645Z,63.48
2023-04-02T17:51:35.726Z,65.05
2023-04-02T17:54:25.767Z,62.44
2023-04-02T17:57:00.662Z,60.43
2023-04-02T18:00:04.617Z,58.68
2023-04-02T18:02:56.102Z,60.13
2023-04-02T18:05:32.695Z,64.15
2023-04-02T18:08:12.578Z,67.52
2023-04-02T18:10:46.112Z,67.00
2023-04-02T18:13:36.610Z,64.60
2023-04-02T18:16:43.106Z,65.49
2023-04-02T18:19:17.163Z,62.81
2023-04-02T18:22:14.338Z,61.56
2023-04-02T18:24:59.361Z,61.04
2023-04-02T18:27:40.692Z,57.83
2023-04-02T18:30:39.218Z,59.10
2023-04-02T18:33:40.400Z,64.56
2023-04-02T18:36:45.942Z,64.70
2023-04-02T18:39:19.291Z,62.51
2023-04-02T18:42:01.748Z,61.78
2023-04-02T18:44:50.970Z,62.68
2023-04-02T18:47:30.835Z,62.21
2023-04-02T18:50:17.009Z,60.80
2023-04-02T18:52:45.486Z,60.78
2023-04-02T18:55:17.956Z,60.81
2023-04-02T18:57:51.603Z,61.59
2023-04-02T19:00:30.558Z,61.79
2023-04-02T19:03:07.587Z,62.83
2023-04-02T19:05:40.797Z,61.67
2023-04-02T19:08:15.776Z,61.78
2023-04-02T19:10:46.760Z,59.97
2023-04-02T19:13:19.565Z,58.93
2023-04-02T19:16:15.575Z,60.25
2023-04-02T19:18:43.607Z,63.85
2023-04-02T19:21:41.325Z,66.76
2023-04-02T19:24:40.150Z,63.13
2023-04-02T19:27:16.277Z,61.47
2023-04-02T19:30:18.137Z,60.11
2023-04-02T19:32:55.617Z,57.22
2023-04-02T19:35:31.624Z,59.96
2023-04-02T19:38:31.202Z,63.15
2023-04-02T19:41:24.542Z,66.37
2023-04-02T19:43:54.349Z,62.58
2023-04-02T19:46:25.796Z,60.48
2023-04-02T19:49:12.719Z,58.19
2023-04-02T19:51:40.676Z,60.00
2023-04-02T19:54:09.105Z,62.73
2023-04-02T19:56:37.293Z,66.54
2023-04-02T19:59:16.959Z,65.35
2023-04-02T20:01:47.188Z,61.60
2023-04-02T20:04:15.519Z,61.12
2023-04-02T20:06:44.130Z,60.12
2023-04-02T20:13:47.866Z,61.88
2023-04-02T20:16:16.743Z,65.81
2023-04-02T20:18:45.439Z,65.57
2023-04-02T20:21:13.511Z,60.87
2023-04-02T20:23:41.662Z,57.89
2023-04-02T20:26:10.635Z,58.65
2023-04-02T20:28:38.815Z,62.33
2023-04-02T20:31:09.490Z,65.61
2023-04-02T20:33:38.755Z,66.56
2023-04-02T20:36:10.447Z,63.62
2023-04-02T20:38:38.939Z,61.75
2023-04-02T20:41:08.473Z,59.99
2023-04-02T20:43:40.492Z,54.32
2023-04-02T20:46:12.291Z,56.17
2023-04-02T20:48:40.984Z,59.63
2023-04-02T20:51:11.451Z,62.47
2023-04-02T20:53:39.691Z,65.68
2023-04-02T20:56:14.538Z,63.00
2023-04-02T20:58:43.845Z,62.13
2023-04-02T21:01:18.542Z,60.78
2023-04-02T21:03:47.514Z,59.41
2023-04-02T21:06:17.741Z,55.90
2023-04-02T21:08:46.288Z,58.27
2023-04-02T21:11:14.956Z,60.60
2023-04-02T21:13:44.525Z,62.98
2023-04-02T21:16:19.447Z,61.41
2023-04-02T21:18:51.549Z,58.29
2023-04-02T21:21:25.515Z,58.82
2023-04-02T21:24:06.540Z,60.29
2023-04-02T21:26:41.609Z,63.19
2023-04-02T21:29:14.527Z,61.37
2023-04-02T21:31:46.592Z,59.78
2023-04-02T21:34:18.019Z,57.17
2023-04-02T21:36:50.480Z,58.25
2023-04-02T21:39:24.008Z,59.56
2023-04-02T21:41:54.161Z,61.11
2023-04-02T21:44:24.740Z,61.60
2023-04-02T21:46:55.597Z,64.95
2023-04-02T21:49:27.569Z,63.14
2023-04-02T21:51:59.586Z,60.57
2023-04-02T21:54:30.971Z,54.62
2023-04-02T21:57:02.592Z,56.10
2023-04-02T21:59:34.009Z,57.64
2023-04-02T22:02:05.575Z,58.72
2023-04-02T22:04:37.570Z,58.98
2023-04-02T22:07:09.589Z,60.67
2023-04-02T22:09:41.556Z,60.81
2023-04-02T22:12:12.589Z,59.94
2023-04-02T22:14:43.583Z,59.19
2023-04-02T22:24:46.534Z,58.55
2023-04-02T22:27:14.505Z,58.57
2023-04-02T22:29:42.575Z,59.65
2023-04-02T22:32:10.575Z,60.38
2023-04-02T22:34:45.720Z,60.72
2023-04-02T22:37:13.867Z,60.36
2023-04-02T22:39:42.021Z,60.84
2023-04-02T22:42:10.031Z,61.47
2023-04-02T22:44:38.062Z,60.49
2023-04-02T22:47:06.029Z,61.19
2023-04-02T22:49:34.024Z,60.66
2023-04-02T22:52:03.811Z,63.12
2023-04-02T22:54:31.990Z,63.29
2023-04-02T22:57:00.013Z,55.98
2023-04-02T22:59:28.541Z,52.00
2023-04-02T23:01:56.766Z,53.69
2023-04-02T23:04:25.091Z,54.70
2023-04-02T23:06:53.773Z,55.74
2023-04-02T23:09:22.213Z,56.83
2023-04-02T23:11:50.132Z,57.29
2023-04-02T23:14:18.191Z,57.73
2023-04-02T23:16:46.130Z,57.89
2023-04-02T23:19:14.151Z,58.50
2023-04-02T23:21:42.101Z,58.98
2023-04-02T23:24:12.627Z,59.06
2023-04-02T23:26:40.622Z,60.63
2023-04-02T23:29:09.902Z,59.01
2023-04-02T23:31:38.434Z,59.19
2023-04-02T23:34:06.882Z,59.84
2023-04-02T23:36:35.645Z,59.67
2023-04-02T23:39:11.500Z,60.67
2023-04-02T23:41:42.542Z,59.75
2023-04-02T23:44:11.208Z,60.33
2023-04-02T23:46:39.211Z,59.57
2023-04-02T23:49:08.394Z,60.05
2023-04-02T23:51:36.376Z,59.85
2023-04-02T23:54:04.328Z,59.83
2023-04-02T23:56:32.397Z,60.03
2023-04-02T23:59:00.772Z,59.93
